sensor_id;sensor_type;location;lat;lon;timestamp;P1;durP1;ratioP1;P2;durP2;ratioP2
76125;SDS011;65174;48.138;21.002;2024-01-27T00:01:11;16.38;;;8.18;;
76125;SDS011;65174;48.138;21.002;2024-01-27T00:04:13;23.10;;;8.83;;
76125;SDS011;65174;48.138;21.002;2024-01-27T00:07:15;17.57;;;8.47;;
76125;SDS011;65174;48.138;21.002;2024-01-27T00:10:17;12.23;;;8.48;;
76125;SDS011;65174;48.138;21.002;2024-01-27T00:13:19;18.05;;;8.82;;
76125;SDS011;65174;48.138;21.002;2024-01-27T00:16:21;20.48;;;8.85;;
76125;SDS011;65174;48.138;21.002;2024-01-27T00:19:22;14.70;;;8.50;;
76125;SDS011;65174;48.138;21.002;2024-01-27T00:22:24;20.60;;;10.00;;
76125;SDS011;65174;48.138;21.002;2024-01-27T00:25:27;20.17;;;10.02;;
76125;SDS011;65174;48.138;21.002;2024-01-27T00:28:28;20.75;;;11.27;;
76125;SDS011;65174;48.138;21.002;2024-01-27T00:31:30;26.20;;;9.73;;
76125;SDS011;65174;48.138;21.002;2024-01-27T00:34:32;20.07;;;10.57;;
76125;SDS011;65174;48.138;21.002;2024-01-27T00:37:34;18.13;;;9.43;;
76125;SDS011;65174;48.138;21.002;2024-01-27T00:40:36;20.98;;;9.70;;
76125;SDS011;65174;48.138;21.002;2024-01-27T00:43:38;12.88;;;7.30;;
76125;SDS011;65174;48.138;21.002;2024-01-27T00:46:40;17.10;;;8.65;;
76125;SDS011;65174;48.138;21.002;2024-01-27T00:49:41;21.93;;;9.93;;
76125;SDS011;65174;48.138;21.002;2024-01-27T00:52:43;20.43;;;9.67;;
76125;SDS011;65174;48.138;21.002;2024-01-27T00:55:45;17.70;;;8.88;;
76125;SDS011;65174;48.138;21.002;2024-01-27T00:58:47;15.48;;;9.55;;
76125;SDS011;65174;48.138;21.002;2024-01-27T01:01:49;17.63;;;9.75;;
76125;SDS011;65174;48.138;21.002;2024-01-27T01:04:51;19.57;;;8.80;;
76125;SDS011;65174;48.138;21.002;2024-01-27T01:07:53;20.33;;;9.87;;
76125;SDS011;65174;48.138;21.002;2024-01-27T01:10:54;16.73;;;9.60;;
76125;SDS011;65174;48.138;21.002;2024-01-27T01:13:56;18.13;;;9.70;;
76125;SDS011;65174;48.138;21.002;2024-01-27T01:16:58;17.80;;;9.02;;
76125;SDS011;65174;48.138;21.002;2024-01-27T01:20:00;18.07;;;8.30;;
76125;SDS011;65174;48.138;21.002;2024-01-27T01:23:02;15.33;;;6.87;;
76125;SDS011;65174;48.138;21.002;2024-01-27T01:26:04;12.40;;;7.72;;
76125;SDS011;65174;48.138;21.002;2024-01-27T01:29:06;20.77;;;8.93;;
76125;SDS011;65174;48.138;21.002;2024-01-27T01:32:08;19.13;;;9.85;;
76125;SDS011;65174;48.138;21.002;2024-01-27T01:35:10;14.73;;;8.63;;
76125;SDS011;65174;48.138;21.002;2024-01-27T01:38:12;21.53;;;10.57;;
76125;SDS011;65174;48.138;21.002;2024-01-27T01:41:13;27.15;;;11.38;;
76125;SDS011;65174;48.138;21.002;2024-01-27T01:44:15;20.90;;;9.68;;
76125;SDS011;65174;48.138;21.002;2024-01-27T01:47:17;10.82;;;5.30;;
76125;SDS011;65174;48.138;21.002;2024-01-27T01:50:19;13.27;;;5.47;;
76125;SDS011;65174;48.138;21.002;2024-01-27T01:53:22;4.93;;;3.83;;
76125;SDS011;65174;48.138;21.002;2024-01-27T01:56:24;13.23;;;5.15;;
76125;SDS011;65174;48.138;21.002;2024-01-27T01:59:26;11.68;;;5.90;;
76125;SDS011;65174;48.138;21.002;2024-01-27T02:02:28;13.60;;;6.32;;
76125;SDS011;65174;48.138;21.002;2024-01-27T02:05:31;18.73;;;9.07;;
76125;SDS011;65174;48.138;21.002;2024-01-27T02:08:33;26.97;;;12.43;;
76125;SDS011;65174;48.138;21.002;2024-01-27T02:11:35;25.67;;;13.15;;
76125;SDS011;65174;48.138;21.002;2024-01-27T02:14:37;29.38;;;13.70;;
76125;SDS011;65174;48.138;21.002;2024-01-27T02:17:41;24.10;;;13.63;;
76125;SDS011;65174;48.138;21.002;2024-01-27T02:20:44;29.73;;;14.87;;
76125;SDS011;65174;48.138;21.002;2024-01-27T02:23:46;31.70;;;16.17;;
76125;SDS011;65174;48.138;21.002;2024-01-27T02:26:48;30.95;;;15.95;;
76125;SDS011;65174;48.138;21.002;2024-01-27T02:29:49;29.77;;;15.30;;
76125;SDS011;65174;48.138;21.002;2024-01-27T02:32:51;20.35;;;11.85;;
76125;SDS011;65174;48.138;21.002;2024-01-27T02:35:53;21.43;;;10.80;;
76125;SDS011;65174;48.138;21.002;2024-01-27T02:38:55;18.70;;;8.13;;
76125;SDS011;65174;48.138;21.002;2024-01-27T02:41:57;14.60;;;7.25;;
76125;SDS011;65174;48.138;21.002;2024-01-27T02:44:59;7.47;;;4.18;;
76125;SDS011;65174;48.138;21.002;2024-01-27T02:48:01;7.03;;;4.47;;
76125;SDS011;65174;48.138;21.002;2024-01-27T02:51:03;11.37;;;4.93;;
76125;SDS011;65174;48.138;21.002;2024-01-27T02:54:05;12.00;;;5.30;;
76125;SDS011;65174;48.138;21.002;2024-01-27T02:57:07;15.23;;;5.55;;
76125;SDS011;65174;48.138;21.002;2024-01-27T03:00:09;10.30;;;5.55;;
76125;SDS011;65174;48.138;21.002;2024-01-27T03:03:11;7.40;;;4.47;;
76125;SDS011;65174;48.138;21.002;2024-01-27T03:06:13;10.20;;;3.87;;
76125;SDS011;65174;48.138;21.002;2024-01-27T03:09:15;9.97;;;4.97;;
76125;SDS011;65174;48.138;21.002;2024-01-27T03:12:17;11.32;;;5.30;;
76125;SDS011;65174;48.138;21.002;2024-01-27T03:15:20;8.10;;;5.18;;
76125;SDS011;65174;48.138;21.002;2024-01-27T03:18:22;7.95;;;4.75;;
76125;SDS011;65174;48.138;21.002;2024-01-27T03:21:24;7.03;;;4.27;;
76125;SDS011;65174;48.138;21.002;2024-01-27T03:24:26;6.00;;;3.87;;
76125;SDS011;65174;48.138;21.002;2024-01-27T03:27:28;9.73;;;3.90;;
76125;SDS011;65174;48.138;21.002;2024-01-27T03:30:30;9.75;;;4.07;;
76125;SDS011;65174;48.138;21.002;2024-01-27T03:33:32;6.05;;;3.72;;
76125;SDS011;65174;48.138;21.002;2024-01-27T03:36:34;9.90;;;3.87;;
76125;SDS011;65174;48.138;21.002;2024-01-27T03:39:36;5.60;;;3.73;;
76125;SDS011;65174;48.138;21.002;2024-01-27T03:42:38;8.75;;;3.55;;
76125;SDS011;65174;48.138;21.002;2024-01-27T03:45:40;6.13;;;3.10;;
76125;SDS011;65174;48.138;21.002;2024-01-27T03:48:41;11.82;;;4.07;;
76125;SDS011;65174;48.138;21.002;2024-01-27T03:51:43;3.33;;;2.70;;
76125;SDS011;65174;48.138;21.002;2024-01-27T03:54:45;8.00;;;3.83;;
76125;SDS011;65174;48.138;21.002;2024-01-27T03:57:47;8.95;;;4.22;;
76125;SDS011;65174;48.138;21.002;2024-01-27T04:00:49;7.50;;;4.80;;
76125;SDS011;65174;48.138;21.002;2024-01-27T04:03:51;8.52;;;4.07;;
76125;SDS011;65174;48.138;21.002;2024-01-27T04:06:53;7.80;;;5.03;;
76125;SDS011;65174;48.138;21.002;2024-01-27T04:09:54;9.50;;;4.93;;
76125;SDS011;65174;48.138;21.002;2024-01-27T04:12:56;7.38;;;4.57;;
76125;SDS011;65174;48.138;21.002;2024-01-27T04:15:58;10.23;;;4.75;;
76125;SDS011;65174;48.138;21.002;2024-01-27T04:19:03;8.73;;;5.20;;
76125;SDS011;65174;48.138;21.002;2024-01-27T04:22:05;10.30;;;5.10;;
76125;SDS011;65174;48.138;21.002;2024-01-27T04:25:06;12.17;;;5.70;;
76125;SDS011;65174;48.138;21.002;2024-01-27T04:28:08;14.52;;;5.78;;
76125;SDS011;65174;48.138;21.002;2024-01-27T04:31:12;15.02;;;5.88;;
76125;SDS011;65174;48.138;21.002;2024-01-27T04:34:14;11.15;;;6.05;;
76125;SDS011;65174;48.138;21.002;2024-01-27T04:37:16;10.95;;;5.80;;
76125;SDS011;65174;48.138;21.002;2024-01-27T04:40:17;8.50;;;4.53;;
76125;SDS011;65174;48.138;21.002;2024-01-27T04:43:19;11.40;;;5.38;;
76125;SDS011;65174;48.138;21.002;2024-01-27T04:46:24;9.98;;;5.70;;
76125;SDS011;65174;48.138;21.002;2024-01-27T04:49:26;12.52;;;6.38;;
76125;SDS011;65174;48.138;21.002;2024-01-27T04:52:28;9.53;;;5.93;;
76125;SDS011;65174;48.138;21.002;2024-01-27T04:55:30;29.83;;;10.77;;
76125;SDS011;65174;48.138;21.002;2024-01-27T04:58:32;34.13;;;13.55;;
76125;SDS011;65174;48.138;21.002;2024-01-27T05:01:33;23.20;;;10.57;;
76125;SDS011;65174;48.138;21.002;2024-01-27T05:04:36;21.08;;;8.38;;
76125;SDS011;65174;48.138;21.002;2024-01-27T05:07:38;17.27;;;8.80;;
76125;SDS011;65174;48.138;21.002;2024-01-27T05:10:40;16.00;;;8.53;;
76125;SDS011;65174;48.138;21.002;2024-01-27T05:13:42;18.10;;;8.45;;
76125;SDS011;65174;48.138;21.002;2024-01-27T05:16:45;18.08;;;8.77;;
76125;SDS011;65174;48.138;21.002;2024-01-27T05:19:47;13.27;;;6.35;;
76125;SDS011;65174;48.138;21.002;2024-01-27T05:22:48;17.67;;;7.50;;
76125;SDS011;65174;48.138;21.002;2024-01-27T05:25:50;16.53;;;7.37;;
76125;SDS011;65174;48.138;21.002;2024-01-27T05:28:52;13.93;;;7.95;;
76125;SDS011;65174;48.138;21.002;2024-01-27T05:31:54;14.60;;;7.53;;
76125;SDS011;65174;48.138;21.002;2024-01-27T05:34:56;11.35;;;6.35;;
76125;SDS011;65174;48.138;21.002;2024-01-27T05:37:58;13.10;;;6.80;;
76125;SDS011;65174;48.138;21.002;2024-01-27T05:41:02;13.03;;;6.50;;
76125;SDS011;65174;48.138;21.002;2024-01-27T05:44:04;12.07;;;5.50;;
76125;SDS011;65174;48.138;21.002;2024-01-27T05:47:06;9.48;;;4.90;;
76125;SDS011;65174;48.138;21.002;2024-01-27T05:50:12;11.63;;;6.05;;
76125;SDS011;65174;48.138;21.002;2024-01-27T05:53:14;10.47;;;5.50;;
76125;SDS011;65174;48.138;21.002;2024-01-27T05:56:16;8.53;;;5.33;;
76125;SDS011;65174;48.138;21.002;2024-01-27T05:59:20;13.57;;;5.13;;
76125;SDS011;65174;48.138;21.002;2024-01-27T06:02:22;12.73;;;5.63;;
76125;SDS011;65174;48.138;21.002;2024-01-27T06:05:24;11.63;;;5.05;;
76125;SDS011;65174;48.138;21.002;2024-01-27T06:08:26;7.27;;;4.53;;
76125;SDS011;65174;48.138;21.002;2024-01-27T06:11:28;10.17;;;4.87;;
76125;SDS011;65174;48.138;21.002;2024-01-27T06:14:30;10.70;;;5.03;;
76125;SDS011;65174;48.138;21.002;2024-01-27T06:17:31;7.60;;;4.60;;
76125;SDS011;65174;48.138;21.002;2024-01-27T06:20:33;8.20;;;3.90;;
76125;SDS011;65174;48.138;21.002;2024-01-27T06:23:35;6.75;;;4.75;;
76125;SDS011;65174;48.138;21.002;2024-01-27T06:26:37;10.50;;;5.10;;
76125;SDS011;65174;48.138;21.002;2024-01-27T06:29:39;12.75;;;4.95;;
76125;SDS011;65174;48.138;21.002;2024-01-27T06:32:42;11.30;;;4.35;;
76125;SDS011;65174;48.138;21.002;2024-01-27T06:35:44;11.25;;;6.13;;
76125;SDS011;65174;48.138;21.002;2024-01-27T06:38:46;10.27;;;4.45;;
76125;SDS011;65174;48.138;21.002;2024-01-27T06:41:47;6.37;;;3.63;;
76125;SDS011;65174;48.138;21.002;2024-01-27T06:44:49;11.40;;;4.20;;
76125;SDS011;65174;48.138;21.002;2024-01-27T06:47:51;6.80;;;3.75;;
76125;SDS011;65174;48.138;21.002;2024-01-27T06:50:53;4.70;;;2.83;;
76125;SDS011;65174;48.138;21.002;2024-01-27T06:53:55;7.83;;;2.77;;
76125;SDS011;65174;48.138;21.002;2024-01-27T06:56:59;6.40;;;2.80;;
76125;SDS011;65174;48.138;21.002;2024-01-27T07:00:01;5.22;;;2.20;;
76125;SDS011;65174;48.138;21.002;2024-01-27T07:03:03;3.90;;;2.20;;
76125;SDS011;65174;48.138;21.002;2024-01-27T07:06:05;3.08;;;2.13;;
76125;SDS011;65174;48.138;21.002;2024-01-27T07:09:08;4.33;;;2.53;;
76125;SDS011;65174;48.138;21.002;2024-01-27T07:12:12;6.23;;;2.77;;
76125;SDS011;65174;48.138;21.002;2024-01-27T07:15:14;2.30;;;1.70;;
76125;SDS011;65174;48.138;21.002;2024-01-27T07:18:16;2.60;;;1.88;;
76125;SDS011;65174;48.138;21.002;2024-01-27T07:21:22;3.67;;;1.48;;
76125;SDS011;65174;48.138;21.002;2024-01-27T07:24:23;0.70;;;0.60;;
76125;SDS011;65174;48.138;21.002;2024-01-27T07:27:25;0.70;;;0.60;;
76125;SDS011;65174;48.138;21.002;2024-01-27T07:30:27;4.20;;;1.05;;
76125;SDS011;65174;48.138;21.002;2024-01-27T07:33:29;1.60;;;0.80;;
76125;SDS011;65174;48.138;21.002;2024-01-27T07:36:31;1.48;;;0.65;;
76125;SDS011;65174;48.138;21.002;2024-01-27T07:39:34;1.77;;;1.00;;
76125;SDS011;65174;48.138;21.002;2024-01-27T07:42:36;2.83;;;0.80;;
76125;SDS011;65174;48.138;21.002;2024-01-27T07:45:38;0.47;;;0.43;;
76125;SDS011;65174;48.138;21.002;2024-01-27T07:48:40;2.58;;;0.80;;
76125;SDS011;65174;48.138;21.002;2024-01-27T07:51:43;1.38;;;0.95;;
76125;SDS011;65174;48.138;21.002;2024-01-27T07:54:45;3.40;;;0.97;;
76125;SDS011;65174;48.138;21.002;2024-01-27T07:57:47;1.10;;;0.80;;
76125;SDS011;65174;48.138;21.002;2024-01-27T08:00:49;3.83;;;1.95;;
76125;SDS011;65174;48.138;21.002;2024-01-27T08:03:51;2.60;;;1.48;;
76125;SDS011;65174;48.138;21.002;2024-01-27T08:06:53;1.77;;;1.10;;
76125;SDS011;65174;48.138;21.002;2024-01-27T08:09:55;5.87;;;1.17;;
76125;SDS011;65174;48.138;21.002;2024-01-27T08:12:58;1.93;;;1.20;;
76125;SDS011;65174;48.138;21.002;2024-01-27T08:16:00;1.75;;;0.98;;
76125;SDS011;65174;48.138;21.002;2024-01-27T08:19:02;9.88;;;1.67;;
76125;SDS011;65174;48.138;21.002;2024-01-27T08:22:04;1.38;;;0.85;;
76125;SDS011;65174;48.138;21.002;2024-01-27T08:25:06;3.47;;;1.20;;
76125;SDS011;65174;48.138;21.002;2024-01-27T08:28:07;3.90;;;1.10;;
76125;SDS011;65174;48.138;21.002;2024-01-27T08:31:11;3.22;;;0.68;;
76125;SDS011;65174;48.138;21.002;2024-01-27T08:34:13;4.95;;;0.95;;
76125;SDS011;65174;48.138;21.002;2024-01-27T08:37:15;1.08;;;0.55;;
76125;SDS011;65174;48.138;21.002;2024-01-27T08:40:20;1.67;;;1.00;;
76125;SDS011;65174;48.138;21.002;2024-01-27T08:43:22;1.20;;;0.97;;
76125;SDS011;65174;48.138;21.002;2024-01-27T08:46:24;2.85;;;1.17;;
76125;SDS011;65174;48.138;21.002;2024-01-27T08:49:25;1.75;;;0.57;;
76125;SDS011;65174;48.138;21.002;2024-01-27T08:52:27;0.65;;;0.52;;
76125;SDS011;65174;48.138;21.002;2024-01-27T08:55:29;2.87;;;0.63;;
76125;SDS011;65174;48.138;21.002;2024-01-27T08:58:31;2.50;;;0.80;;
76125;SDS011;65174;48.138;21.002;2024-01-27T09:01:33;1.70;;;0.60;;
76125;SDS011;65174;48.138;21.002;2024-01-27T09:04:35;0.63;;;0.60;;
76125;SDS011;65174;48.138;21.002;2024-01-27T09:07:37;2.75;;;1.15;;
76125;SDS011;65174;48.138;21.002;2024-01-27T09:10:39;1.58;;;1.35;;
76125;SDS011;65174;48.138;21.002;2024-01-27T09:13:41;2.07;;;0.93;;
76125;SDS011;65174;48.138;21.002;2024-01-27T09:16:43;1.45;;;0.70;;
76125;SDS011;65174;48.138;21.002;2024-01-27T09:19:44;2.83;;;0.40;;
76125;SDS011;65174;48.138;21.002;2024-01-27T09:22:46;2.65;;;1.15;;
76125;SDS011;65174;48.138;21.002;2024-01-27T09:25:49;2.27;;;1.57;;
76125;SDS011;65174;48.138;21.002;2024-01-27T09:28:51;1.03;;;0.90;;
76125;SDS011;65174;48.138;21.002;2024-01-27T09:31:56;1.70;;;0.77;;
76125;SDS011;65174;48.138;21.002;2024-01-27T09:34:58;0.70;;;0.63;;
76125;SDS011;65174;48.138;21.002;2024-01-27T09:38:00;0.90;;;0.40;;
76125;SDS011;65174;48.138;21.002;2024-01-27T09:41:01;2.83;;;0.85;;
76125;SDS011;65174;48.138;21.002;2024-01-27T09:44:04;3.03;;;1.00;;
76125;SDS011;65174;48.138;21.002;2024-01-27T09:47:06;1.75;;;0.90;;
76125;SDS011;65174;48.138;21.002;2024-01-27T09:50:09;1.80;;;0.77;;
76125;SDS011;65174;48.138;21.002;2024-01-27T09:53:12;1.70;;;0.68;;
76125;SDS011;65174;48.138;21.002;2024-01-27T09:56:14;2.80;;;0.50;;
76125;SDS011;65174;48.138;21.002;2024-01-27T09:59:19;2.97;;;0.73;;
76125;SDS011;65174;48.138;21.002;2024-01-27T10:02:22;3.63;;;1.00;;
76125;SDS011;65174;48.138;21.002;2024-01-27T10:05:28;1.75;;;0.70;;
76125;SDS011;65174;48.138;21.002;2024-01-27T10:08:30;0.98;;;0.75;;
76125;SDS011;65174;48.138;21.002;2024-01-27T10:11:32;1.47;;;0.80;;
76125;SDS011;65174;48.138;21.002;2024-01-27T10:14:38;2.23;;;0.60;;
76125;SDS011;65174;48.138;21.002;2024-01-27T10:17:41;2.55;;;1.05;;
76125;SDS011;65174;48.138;21.002;2024-01-27T10:20:42;0.88;;;0.77;;
76125;SDS011;65174;48.138;21.002;2024-01-27T10:23:45;1.33;;;0.70;;
76125;SDS011;65174;48.138;21.002;2024-01-27T10:26:47;7.37;;;2.53;;
76125;SDS011;65174;48.138;21.002;2024-01-27T10:29:53;2.57;;;0.97;;
76125;SDS011;65174;48.138;21.002;2024-01-27T10:32:56;2.38;;;0.77;;
76125;SDS011;65174;48.138;21.002;2024-01-27T10:36:02;0.82;;;0.60;;
76125;SDS011;65174;48.138;21.002;2024-01-27T10:39:13;2.45;;;0.52;;
76125;SDS011;65174;48.138;21.002;2024-01-27T10:42:15;3.07;;;0.63;;
76125;SDS011;65174;48.138;21.002;2024-01-27T10:45:18;1.23;;;0.80;;
76125;SDS011;65174;48.138;21.002;2024-01-27T10:48:20;1.85;;;0.80;;
76125;SDS011;65174;48.138;21.002;2024-01-27T10:51:31;1.83;;;0.85;;
76125;SDS011;65174;48.138;21.002;2024-01-27T10:54:34;2.70;;;1.25;;
76125;SDS011;65174;48.138;21.002;2024-01-27T10:57:37;1.05;;;0.70;;
76125;SDS011;65174;48.138;21.002;2024-01-27T11:00:39;3.57;;;1.37;;
76125;SDS011;65174;48.138;21.002;2024-01-27T11:03:43;1.40;;;0.65;;
76125;SDS011;65174;48.138;21.002;2024-01-27T11:06:46;1.13;;;0.70;;
76125;SDS011;65174;48.138;21.002;2024-01-27T11:09:49;3.63;;;1.00;;
76125;SDS011;65174;48.138;21.002;2024-01-27T11:12:52;1.85;;;0.80;;
76125;SDS011;65174;48.138;21.002;2024-01-27T11:15:56;1.93;;;1.17;;
76125;SDS011;65174;48.138;21.002;2024-01-27T11:19:00;2.55;;;1.33;;
76125;SDS011;65174;48.138;21.002;2024-01-27T11:22:02;5.82;;;1.92;;
76125;SDS011;65174;48.138;21.002;2024-01-27T11:28:14;6.10;;;2.60;;
76125;SDS011;65174;48.138;21.002;2024-01-27T11:31:17;1.37;;;0.77;;
76125;SDS011;65174;48.138;21.002;2024-01-27T11:34:19;3.35;;;1.92;;
76125;SDS011;65174;48.138;21.002;2024-01-27T11:37:22;1.77;;;0.75;;
76125;SDS011;65174;48.138;21.002;2024-01-27T11:40:27;1.95;;;0.65;;
76125;SDS011;65174;48.138;21.002;2024-01-27T11:43:29;1.27;;;0.83;;
76125;SDS011;65174;48.138;21.002;2024-01-27T11:46:31;2.07;;;0.90;;
76125;SDS011;65174;48.138;21.002;2024-01-27T11:49:33;2.35;;;0.80;;
76125;SDS011;65174;48.138;21.002;2024-01-27T11:52:35;2.33;;;1.20;;
76125;SDS011;65174;48.138;21.002;2024-01-27T11:55:37;1.45;;;0.60;;
76125;SDS011;65174;48.138;21.002;2024-01-27T11:58:45;2.03;;;0.80;;
76125;SDS011;65174;48.138;21.002;2024-01-27T12:01:47;1.63;;;0.60;;
76125;SDS011;65174;48.138;21.002;2024-01-27T12:04:50;1.15;;;0.70;;
76125;SDS011;65174;48.138;21.002;2024-01-27T12:07:53;1.75;;;0.90;;
76125;SDS011;65174;48.138;21.002;2024-01-27T12:10:55;1.25;;;0.60;;
76125;SDS011;65174;48.138;21.002;2024-01-27T12:13:56;3.60;;;1.00;;
76125;SDS011;65174;48.138;21.002;2024-01-27T12:16:58;3.67;;;1.00;;
76125;SDS011;65174;48.138;21.002;2024-01-27T12:20:00;1.83;;;0.90;;
76125;SDS011;65174;48.138;21.002;2024-01-27T12:23:05;5.03;;;1.63;;
76125;SDS011;65174;48.138;21.002;2024-01-27T12:26:13;2.80;;;1.67;;
76125;SDS011;65174;48.138;21.002;2024-01-27T12:29:15;2.67;;;1.50;;
76125;SDS011;65174;48.138;21.002;2024-01-27T12:32:17;2.23;;;1.10;;
76125;SDS011;65174;48.138;21.002;2024-01-27T12:35:19;11.63;;;1.95;;
76125;SDS011;65174;48.138;21.002;2024-01-27T12:38:22;2.85;;;1.60;;
76125;SDS011;65174;48.138;21.002;2024-01-27T12:41:25;7.30;;;1.52;;
76125;SDS011;65174;48.138;21.002;2024-01-27T12:44:27;1.58;;;1.00;;
76125;SDS011;65174;48.138;21.002;2024-01-27T12:47:29;2.43;;;1.23;;
76125;SDS011;65174;48.138;21.002;2024-01-27T12:50:31;3.50;;;1.00;;
76125;SDS011;65174;48.138;21.002;2024-01-27T12:53:34;2.20;;;1.00;;
76125;SDS011;65174;48.138;21.002;2024-01-27T12:56:35;3.88;;;1.40;;
76125;SDS011;65174;48.138;21.002;2024-01-27T12:59:37;4.13;;;1.30;;
76125;SDS011;65174;48.138;21.002;2024-01-27T13:02:39;3.83;;;2.00;;
76125;SDS011;65174;48.138;21.002;2024-01-27T13:05:41;2.72;;;1.65;;
76125;SDS011;65174;48.138;21.002;2024-01-27T13:08:43;4.22;;;1.70;;
76125;SDS011;65174;48.138;21.002;2024-01-27T13:11:45;5.32;;;2.22;;
76125;SDS011;65174;48.138;21.002;2024-01-27T13:14:47;4.27;;;1.73;;
76125;SDS011;65174;48.138;21.002;2024-01-27T13:17:50;5.13;;;1.30;;
76125;SDS011;65174;48.138;21.002;2024-01-27T13:20:52;1.98;;;1.35;;
76125;SDS011;65174;48.138;21.002;2024-01-27T13:23:54;3.83;;;1.50;;
76125;SDS011;65174;48.138;21.002;2024-01-27T13:26:56;5.40;;;2.13;;
76125;SDS011;65174;48.138;21.002;2024-01-27T13:29:59;5.47;;;2.00;;
76125;SDS011;65174;48.138;21.002;2024-01-27T13:33:01;3.23;;;1.67;;
76125;SDS011;65174;48.138;21.002;2024-01-27T13:36:03;2.70;;;1.63;;
76125;SDS011;65174;48.138;21.002;2024-01-27T13:39:05;3.63;;;1.50;;
76125;SDS011;65174;48.138;21.002;2024-01-27T13:42:07;2.30;;;1.25;;
76125;SDS011;65174;48.138;21.002;2024-01-27T13:45:09;2.37;;;1.37;;
76125;SDS011;65174;48.138;21.002;2024-01-27T13:48:11;4.93;;;1.00;;
76125;SDS011;65174;48.138;21.002;2024-01-27T13:51:13;6.53;;;1.50;;
76125;SDS011;65174;48.138;21.002;2024-01-27T13:54:14;10.23;;;1.30;;
76125;SDS011;65174;48.138;21.002;2024-01-27T13:57:17;2.83;;;1.02;;
76125;SDS011;65174;48.138;21.002;2024-01-27T14:00:19;0.97;;;0.60;;
76125;SDS011;65174;48.138;21.002;2024-01-27T14:03:21;2.67;;;1.00;;
76125;SDS011;65174;48.138;21.002;2024-01-27T14:06:23;3.08;;;1.33;;
76125;SDS011;65174;48.138;21.002;2024-01-27T14:09:25;4.85;;;1.13;;
76125;SDS011;65174;48.138;21.002;2024-01-27T14:12:28;2.33;;;0.88;;
76125;SDS011;65174;48.138;21.002;2024-01-27T14:15:30;4.27;;;0.93;;
76125;SDS011;65174;48.138;21.002;2024-01-27T14:18:32;3.43;;;0.90;;
76125;SDS011;65174;48.138;21.002;2024-01-27T14:21:35;3.03;;;1.10;;
76125;SDS011;65174;48.138;21.002;2024-01-27T14:24:38;3.67;;;0.95;;
76125;SDS011;65174;48.138;21.002;2024-01-27T14:27:40;3.40;;;1.80;;
76125;SDS011;65174;48.138;21.002;2024-01-27T14:30:42;8.50;;;1.10;;
76125;SDS011;65174;48.138;21.002;2024-01-27T14:33:46;3.27;;;1.30;;
76125;SDS011;65174;48.138;21.002;2024-01-27T14:36:48;4.60;;;1.33;;
76125;SDS011;65174;48.138;21.002;2024-01-27T14:39:50;3.30;;;1.00;;
76125;SDS011;65174;48.138;21.002;2024-01-27T14:42:52;3.55;;;1.65;;
76125;SDS011;65174;48.138;21.002;2024-01-27T14:45:54;4.93;;;2.43;;
76125;SDS011;65174;48.138;21.002;2024-01-27T14:48:57;4.63;;;2.90;;
76125;SDS011;65174;48.138;21.002;2024-01-27T14:51:59;4.30;;;2.30;;
76125;SDS011;65174;48.138;21.002;2024-01-27T14:55:01;7.40;;;3.00;;
76125;SDS011;65174;48.138;21.002;2024-01-27T14:58:03;11.88;;;6.65;;
76125;SDS011;65174;48.138;21.002;2024-01-27T15:01:05;15.37;;;8.57;;
76125;SDS011;65174;48.138;21.002;2024-01-27T15:04:07;8.10;;;4.20;;
76125;SDS011;65174;48.138;21.002;2024-01-27T15:07:09;9.63;;;4.60;;
76125;SDS011;65174;48.138;21.002;2024-01-27T15:10:17;8.23;;;3.45;;
76125;SDS011;65174;48.138;21.002;2024-01-27T15:13:18;6.93;;;3.38;;
76125;SDS011;65174;48.138;21.002;2024-01-27T15:16:25;8.73;;;1.33;;
76125;SDS011;65174;48.138;21.002;2024-01-27T15:19:27;4.17;;;1.50;;
76125;SDS011;65174;48.138;21.002;2024-01-27T15:22:40;3.30;;;1.58;;
76125;SDS011;65174;48.138;21.002;2024-01-27T15:25:43;3.97;;;1.58;;
76125;SDS011;65174;48.138;21.002;2024-01-27T15:28:46;4.38;;;1.83;;
76125;SDS011;65174;48.138;21.002;2024-01-27T15:31:48;1.73;;;1.10;;
76125;SDS011;65174;48.138;21.002;2024-01-27T15:34:50;1.73;;;1.10;;
76125;SDS011;65174;48.138;21.002;2024-01-27T15:37:53;2.65;;;1.33;;
76125;SDS011;65174;48.138;21.002;2024-01-27T15:40:57;3.10;;;1.70;;
76125;SDS011;65174;48.138;21.002;2024-01-27T15:43:59;6.82;;;1.48;;
76125;SDS011;65174;48.138;21.002;2024-01-27T15:47:02;3.77;;;2.07;;
76125;SDS011;65174;48.138;21.002;2024-01-27T15:50:03;6.83;;;2.80;;
76125;SDS011;65174;48.138;21.002;2024-01-27T15:53:06;10.55;;;3.13;;
76125;SDS011;65174;48.138;21.002;2024-01-27T15:56:09;2.42;;;1.38;;
76125;SDS011;65174;48.138;21.002;2024-01-27T15:59:12;4.90;;;2.75;;
76125;SDS011;65174;48.138;21.002;2024-01-27T16:02:15;8.27;;;3.67;;
76125;SDS011;65174;48.138;21.002;2024-01-27T16:05:17;2.93;;;1.87;;
76125;SDS011;65174;48.138;21.002;2024-01-27T16:08:19;2.30;;;1.35;;
76125;SDS011;65174;48.138;21.002;2024-01-27T16:11:21;3.47;;;1.70;;
76125;SDS011;65174;48.138;21.002;2024-01-27T16:14:23;5.25;;;2.08;;
76125;SDS011;65174;48.138;21.002;2024-01-27T16:17:24;3.40;;;1.13;;
76125;SDS011;65174;48.138;21.002;2024-01-27T16:20:26;2.53;;;1.40;;
76125;SDS011;65174;48.138;21.002;2024-01-27T16:23:28;4.63;;;1.40;;
76125;SDS011;65174;48.138;21.002;2024-01-27T16:26:32;2.15;;;1.40;;
76125;SDS011;65174;48.138;21.002;2024-01-27T16:29:34;2.83;;;1.52;;
76125;SDS011;65174;48.138;21.002;2024-01-27T16:32:36;1.63;;;1.33;;
76125;SDS011;65174;48.138;21.002;2024-01-27T16:35:37;1.93;;;0.90;;
76125;SDS011;65174;48.138;21.002;2024-01-27T16:38:39;7.43;;;1.63;;
76125;SDS011;65174;48.138;21.002;2024-01-27T16:41:45;3.88;;;1.67;;
76125;SDS011;65174;48.138;21.002;2024-01-27T16:44:47;5.15;;;1.80;;
76125;SDS011;65174;48.138;21.002;2024-01-27T16:47:48;4.37;;;2.00;;
76125;SDS011;65174;48.138;21.002;2024-01-27T16:50:50;2.27;;;1.20;;
76125;SDS011;65174;48.138;21.002;2024-01-27T16:53:52;3.90;;;1.25;;
76125;SDS011;65174;48.138;21.002;2024-01-27T16:56:54;4.10;;;1.23;;
76125;SDS011;65174;48.138;21.002;2024-01-27T16:59:58;2.92;;;1.63;;
76125;SDS011;65174;48.138;21.002;2024-01-27T17:02:59;5.00;;;2.27;;
76125;SDS011;65174;48.138;21.002;2024-01-27T17:06:02;2.50;;;2.00;;
76125;SDS011;65174;48.138;21.002;2024-01-27T17:09:04;4.55;;;2.10;;
76125;SDS011;65174;48.138;21.002;2024-01-27T17:12:06;4.75;;;1.92;;
76125;SDS011;65174;48.138;21.002;2024-01-27T17:15:12;4.65;;;2.08;;
76125;SDS011;65174;48.138;21.002;2024-01-27T17:18:14;2.77;;;1.67;;
76125;SDS011;65174;48.138;21.002;2024-01-27T17:21:18;8.57;;;3.40;;
76125;SDS011;65174;48.138;21.002;2024-01-27T17:24:23;9.20;;;2.70;;
76125;SDS011;65174;48.138;21.002;2024-01-27T17:27:25;2.45;;;1.58;;
76125;SDS011;65174;48.138;21.002;2024-01-27T17:30:27;4.05;;;2.00;;
76125;SDS011;65174;48.138;21.002;2024-01-27T17:33:29;4.60;;;2.40;;
76125;SDS011;65174;48.138;21.002;2024-01-27T17:36:34;3.23;;;1.87;;
76125;SDS011;65174;48.138;21.002;2024-01-27T17:39:36;5.50;;;2.10;;
76125;SDS011;65174;48.138;21.002;2024-01-27T17:42:38;2.85;;;1.65;;
76125;SDS011;65174;48.138;21.002;2024-01-27T17:45:41;5.88;;;1.73;;
76125;SDS011;65174;48.138;21.002;2024-01-27T17:48:43;8.27;;;3.67;;
76125;SDS011;65174;48.138;21.002;2024-01-27T17:51:45;4.60;;;2.53;;
76125;SDS011;65174;48.138;21.002;2024-01-27T17:54:49;2.20;;;1.63;;
76125;SDS011;65174;48.138;21.002;2024-01-27T17:57:51;3.80;;;1.38;;
76125;SDS011;65174;48.138;21.002;2024-01-27T18:00:53;3.28;;;1.70;;